sensor_id;sensor_type;location;lat;lon;timestamp;pressure;altitude;pressure_sealevel;temperature;humidity
4617;BME280;2321;42.704;23.384;2022-10-31T00:01:46;95910.38;;;14.13;83.69
4617;BME280;2321;42.704;23.384;2022-10-31T00:04:15;95917.28;;;13.87;85.44
4617;BME280;2321;42.704;23.384;2022-10-31T00:06:41;95918.88;;;13.75;86.24
4617;BME280;2321;42.704;23.384;2022-10-31T00:09:09;95914.72;;;13.65;87.19
4617;BME280;2321;42.704;23.384;2022-10-31T00:11:37;95914.69;;;13.58;88.48
4617;BME280;2321;42.704;23.384;2022-10-31T00:14:04;95911.69;;;13.46;90.88
4617;BME280;2321;42.704;23.384;2022-10-31T00:16:31;95912.53;;;13.40;91.26
4617;BME280;2321;42.704;23.384;2022-10-31T00:19:00;95922.34;;;13.33;92.01
4617;BME280;2321;42.704;23.384;2022-10-31T00:21:30;95924.41;;;13.37;92.30
4617;BME280;2321;42.704;23.384;2022-10-31T00:23:57;95917.25;;;13.45;91.93
4617;BME280;2321;42.704;23.384;2022-10-31T00:26:24;95914.63;;;13.51;91.68
4617;BME280;2321;42.704;23.384;2022-10-31T00:28:52;95921.38;;;13.47;91.09
4617;BME280;2321;42.704;23.384;2022-10-31T00:31:19;95915.69;;;13.57;90.50
4617;BME280;2321;42.704;23.384;2022-10-31T00:33:46;95909.13;;;13.60;90.89
4617;BME280;2321;42.704;23.384;2022-10-31T00:36:15;95915.47;;;13.52;90.68
4617;BME280;2321;42.704;23.384;2022-10-31T00:38:44;95923.34;;;13.32;89.43
4617;BME280;2321;42.704;23.384;2022-10-31T00:41:13;95921.28;;;12.98;92.05
4617;BME280;2321;42.704;23.384;2022-10-31T00:43:40;95912.69;;;12.74;95.27
4617;BME280;2321;42.704;23.384;2022-10-31T00:46:07;95920.47;;;12.69;95.92
4617;BME280;2321;42.704;23.384;2022-10-31T00:48:34;95916.72;;;12.63;96.80
4617;BME280;2321;42.704;23.384;2022-10-31T00:51:01;95917.81;;;12.47;97.38
4617;BME280;2321;42.704;23.384;2022-10-31T00:53:28;95924.22;;;12.30;98.82
4617;BME280;2321;42.704;23.384;2022-10-31T00:55:57;95919.59;;;12.17;99.75
4617;BME280;2321;42.704;23.384;2022-10-31T00:58:23;95927.03;;;12.07;100.00
4617;BME280;2321;42.704;23.384;2022-10-31T01:00:50;95915.13;;;12.09;100.00
4617;BME280;2321;42.704;23.384;2022-10-31T01:03:21;95927.78;;;12.01;100.00
4617;BME280;2321;42.704;23.384;2022-10-31T01:05:56;95929.28;;;11.88;100.00
4617;BME280;2321;42.704;23.384;2022-10-31T01:08:23;95922.28;;;11.87;100.00
4617;BME280;2321;42.704;23.384;2022-10-31T01:11:00;95926.47;;;11.74;100.00
4617;BME280;2321;42.704;23.384;2022-10-31T01:13:27;95920.94;;;11.76;100.00
4617;BME280;2321;42.704;23.384;2022-10-31T01:15:54;95925.16;;;11.70;100.00
4617;BME280;2321;42.704;23.384;2022-10-31T01:18:21;95931.78;;;11.59;100.00
4617;BME280;2321;42.704;23.384;2022-10-31T01:20:57;95928.13;;;11.60;100.00
4617;BME280;2321;42.704;23.384;2022-10-31T01:23:24;95937.88;;;11.68;100.00
4617;BME280;2321;42.704;23.384;2022-10-31T01:26:00;95941.81;;;11.57;100.00
4617;BME280;2321;42.704;23.384;2022-10-31T01:28:27;95949.47;;;11.45;100.00
4617;BME280;2321;42.704;23.384;2022-10-31T01:30:54;95946.53;;;11.40;100.00
4617;BME280;2321;42.704;23.384;2022-10-31T01:33:21;95940.16;;;11.26;100.00
4617;BME280;2321;42.704;23.384;2022-10-31T01:35:49;95943.66;;;11.26;100.00
4617;BME280;2321;42.704;23.384;2022-10-31T01:38:16;95938.16;;;11.28;100.00
4617;BME280;2321;42.704;23.384;2022-10-31T01:40:43;95940.34;;;11.24;100.00
4617;BME280;2321;42.704;23.384;2022-10-31T01:43:13;95941.28;;;11.31;100.00
4617;BME280;2321;42.704;23.384;2022-10-31T01:45:40;95944.50;;;11.27;100.00
4617;BME280;2321;42.704;23.384;2022-10-31T01:48:12;95937.41;;;11.19;100.00
4617;BME280;2321;42.704;23.384;2022-10-31T01:50:40;95926.47;;;11.14;100.00
4617;BME280;2321;42.704;23.384;2022-10-31T01:53:11;95938.53;;;11.25;100.00
4617;BME280;2321;42.704;23.384;2022-10-31T01:55:40;95934.28;;;11.30;100.00
4617;BME280;2321;42.704;23.384;2022-10-31T01:58:10;95940.09;;;11.34;100.00
4617;BME280;2321;42.704;23.384;2022-10-31T02:00:42;95941.09;;;11.33;100.00
4617;BME280;2321;42.704;23.384;2022-10-31T02:03:11;95937.22;;;11.36;100.00
4617;BME280;2321;42.704;23.384;2022-10-31T02:05:38;95935.88;;;11.40;100.00
4617;BME280;2321;42.704;23.384;2022-10-31T02:08:10;95927.13;;;11.46;100.00
4617;BME280;2321;42.704;23.384;2022-10-31T02:10:40;95931.25;;;11.49;100.00
4617;BME280;2321;42.704;23.384;2022-10-31T02:13:07;95936.50;;;11.57;100.00
4617;BME280;2321;42.704;23.384;2022-10-31T02:15:35;95942.91;;;11.63;100.00
4617;BME280;2321;42.704;23.384;2022-10-31T02:18:05;95937.59;;;11.63;100.00
4617;BME280;2321;42.704;23.384;2022-10-31T02:20:38;95933.91;;;11.64;100.00
4617;BME280;2321;42.704;23.384;2022-10-31T02:23:30;95944.38;;;11.65;100.00
4617;BME280;2321;42.704;23.384;2022-10-31T02:26:14;95935.00;;;11.70;100.00
4617;BME280;2321;42.704;23.384;2022-10-31T02:29:05;95946.97;;;11.74;100.00
4617;BME280;2321;42.704;23.384;2022-10-31T02:31:45;95954.13;;;11.73;100.00
4617;BME280;2321;42.704;23.384;2022-10-31T02:34:18;95950.47;;;11.74;100.00
4617;BME280;2321;42.704;23.384;2022-10-31T02:36:51;95959.09;;;11.76;100.00
4617;BME280;2321;42.704;23.384;2022-10-31T02:39:24;95963.59;;;11.76;100.00
4617;BME280;2321;42.704;23.384;2022-10-31T02:42:01;95962.31;;;11.72;100.00
4617;BME280;2321;42.704;23.384;2022-10-31T02:44:35;95957.44;;;11.75;100.00
4617;BME280;2321;42.704;23.384;2022-10-31T02:47:08;95963.16;;;11.72;100.00
4617;BME280;2321;42.704;23.384;2022-10-31T02:49:42;95965.44;;;11.75;100.00
4617;BME280;2321;42.704;23.384;2022-10-31T02:52:17;95958.28;;;11.76;100.00
4617;BME280;2321;42.704;23.384;2022-10-31T02:54:45;95956.81;;;11.73;100.00
4617;BME280;2321;42.704;23.384;2022-10-31T02:57:13;95961.88;;;11.68;100.00
4617;BME280;2321;42.704;23.384;2022-10-31T02:59:45;95976.22;;;11.67;100.00
4617;BME280;2321;42.704;23.384;2022-10-31T03:02:25;95968.13;;;11.75;100.00
4617;BME280;2321;42.704;23.384;2022-10-31T03:05:09;95972.91;;;11.65;100.00
4617;BME280;2321;42.704;23.384;2022-10-31T03:07:42;95968.03;;;11.69;100.00
4617;BME280;2321;42.704;23.384;2022-10-31T03:10:17;95972.81;;;11.73;100.00
4617;BME280;2321;42.704;23.384;2022-10-31T03:12:51;95969.22;;;11.66;100.00
4617;BME280;2321;42.704;23.384;2022-10-31T03:15:26;95962.25;;;11.65;100.00
4617;BME280;2321;42.704;23.384;2022-10-31T03:17:59;95962.25;;;11.65;100.00
4617;BME280;2321;42.704;23.384;2022-10-31T03:20:30;95972.09;;;11.64;100.00
4617;BME280;2321;42.704;23.384;2022-10-31T03:23:00;95974.66;;;11.58;100.00
4617;BME280;2321;42.704;23.384;2022-10-31T03:25:29;95968.22;;;11.52;100.00
4617;BME280;2321;42.704;23.384;2022-10-31T03:27:57;95972.81;;;11.58;100.00
4617;BME280;2321;42.704;23.384;2022-10-31T03:30:26;95981.28;;;11.62;100.00
4617;BME280;2321;42.704;23.384;2022-10-31T03:32:56;95980.34;;;11.54;100.00
4617;BME280;2321;42.704;23.384;2022-10-31T03:35:27;95983.22;;;11.53;100.00
4617;BME280;2321;42.704;23.384;2022-10-31T03:37:55;95984.22;;;11.52;100.00
4617;BME280;2321;42.704;23.384;2022-10-31T03:40:26;95985.13;;;11.59;100.00
4617;BME280;2321;42.704;23.384;2022-10-31T03:42:57;95980.25;;;11.63;100.00
4617;BME280;2321;42.704;23.384;2022-10-31T03:45:27;95985.88;;;11.68;100.00
4617;BME280;2321;42.704;23.384;2022-10-31T03:47:58;95989.56;;;11.67;100.00
4617;BME280;2321;42.704;23.384;2022-10-31T03:50:28;95993.06;;;11.68;100.00
4617;BME280;2321;42.704;23.384;2022-10-31T03:53:00;95989.00;;;11.72;100.00
4617;BME280;2321;42.704;23.384;2022-10-31T03:55:33;95996.94;;;11.65;100.00
4617;BME280;2321;42.704;23.384;2022-10-31T03:58:09;95992.59;;;11.64;100.00
4617;BME280;2321;42.704;23.384;2022-10-31T04:00:40;95999.97;;;11.62;100.00
4617;BME280;2321;42.704;23.384;2022-10-31T04:03:12;96000.31;;;11.59;100.00
4617;BME280;2321;42.704;23.384;2022-10-31T04:05:44;96000.69;;;11.55;100.00
4617;BME280;2321;42.704;23.384;2022-10-31T04:08:15;95995.34;;;11.55;100.00
4617;BME280;2321;42.704;23.384;2022-10-31T04:10:44;96000.59;;;11.49;100.00
4617;BME280;2321;42.704;23.384;2022-10-31T04:13:14;96005.34;;;11.53;100.00
4617;BME280;2321;42.704;23.384;2022-10-31T04:15:44;96012.63;;;11.44;100.00
4617;BME280;2321;42.704;23.384;2022-10-31T04:18:13;96005.09;;;11.48;100.00
4617;BME280;2321;42.704;23.384;2022-10-31T04:20:41;96005.09;;;11.48;100.00
4617;BME280;2321;42.704;23.384;2022-10-31T04:23:15;96006.75;;;11.49;100.00
4617;BME280;2321;42.704;23.384;2022-10-31T04:25:44;96013.44;;;11.45;100.00
4617;BME280;2321;42.704;23.384;2022-10-31T04:28:11;96022.44;;;11.44;100.00
4617;BME280;2321;42.704;23.384;2022-10-31T04:30:38;96013.66;;;11.43;100.00
4617;BME280;2321;42.704;23.384;2022-10-31T04:33:05;96014.06;;;11.32;100.00
4617;BME280;2321;42.704;23.384;2022-10-31T04:35:33;96012.34;;;11.39;100.00
4617;BME280;2321;42.704;23.384;2022-10-31T04:38:00;96011.16;;;11.42;100.00
4617;BME280;2321;42.704;23.384;2022-10-31T04:40:27;96011.88;;;11.36;100.00
4617;BME280;2321;42.704;23.384;2022-10-31T04:42:54;96018.59;;;11.31;100.00
4617;BME280;2321;42.704;23.384;2022-10-31T04:45:21;96024.94;;;11.30;100.00
4617;BME280;2321;42.704;23.384;2022-10-31T04:47:48;96016.56;;;11.33;100.00
4617;BME280;2321;42.704;23.384;2022-10-31T04:50:15;96022.78;;;11.26;100.00
4617;BME280;2321;42.704;23.384;2022-10-31T04:52:44;96025.38;;;11.19;100.00
4617;BME280;2321;42.704;23.384;2022-10-31T04:55:13;96030.16;;;11.24;100.00
4617;BME280;2321;42.704;23.384;2022-10-31T04:57:43;96023.00;;;11.24;100.00
4617;BME280;2321;42.704;23.384;2022-10-31T05:00:12;96025.81;;;11.22;100.00
4617;BME280;2321;42.704;23.384;2022-10-31T05:02:43;96023.81;;;11.25;100.00
4617;BME280;2321;42.704;23.384;2022-10-31T05:05:11;96025.00;;;11.22;100.00
4617;BME280;2321;42.704;23.384;2022-10-31T05:07:43;96015.06;;;11.16;100.00
4617;BME280;2321;42.704;23.384;2022-10-31T05:10:11;96028.97;;;11.26;100.00
4617;BME280;2321;42.704;23.384;2022-10-31T05:12:45;96038.78;;;11.26;100.00
4617;BME280;2321;42.704;23.384;2022-10-31T05:15:13;96042.13;;;11.28;100.00
4617;BME280;2321;42.704;23.384;2022-10-31T05:17:40;96051.13;;;11.27;100.00
4617;BME280;2321;42.704;23.384;2022-10-31T05:20:08;96056.91;;;11.30;100.00
4617;BME280;2321;42.704;23.384;2022-10-31T05:22:36;96056.09;;;11.30;100.00
4617;BME280;2321;42.704;23.384;2022-10-31T05:25:05;96052.41;;;11.31;100.00
4617;BME280;2321;42.704;23.384;2022-10-31T05:27:32;96058.22;;;11.35;100.00
4617;BME280;2321;42.704;23.384;2022-10-31T05:29:58;96059.75;;;11.29;100.00
4617;BME280;2321;42.704;23.384;2022-10-31T05:32:25;96056.66;;;11.25;100.00
4617;BME280;2321;42.704;23.384;2022-10-31T05:34:52;96069.56;;;11.13;100.00
4617;BME280;2321;42.704;23.384;2022-10-31T05:37:19;96067.19;;;11.18;100.00
4617;BME280;2321;42.704;23.384;2022-10-31T05:39:46;96061.09;;;11.09;100.00
4617;BME280;2321;42.704;23.384;2022-10-31T05:42:14;96062.03;;;11.17;100.00
4617;BME280;2321;42.704;23.384;2022-10-31T05:44:41;96064.75;;;11.08;100.00
4617;BME280;2321;42.704;23.384;2022-10-31T05:47:08;96069.72;;;11.11;100.00
4617;BME280;2321;42.704;23.384;2022-10-31T05:49:35;96074.78;;;11.06;100.00
4617;BME280;2321;42.704;23.384;2022-10-31T05:52:01;96075.41;;;11.08;100.00
4617;BME280;2321;42.704;23.384;2022-10-31T05:54:28;96076.31;;;11.00;100.00
4617;BME280;2321;42.704;23.384;2022-10-31T05:56:55;96068.78;;;11.04;100.00
4617;BME280;2321;42.704;23.384;2022-10-31T05:59:23;96079.63;;;11.03;100.00
4617;BME280;2321;42.704;23.384;2022-10-31T06:01:50;96079.56;;;11.11;100.00
4617;BME280;2321;42.704;23.384;2022-10-31T06:04:17;96080.16;;;11.21;100.00
4617;BME280;2321;42.704;23.384;2022-10-31T06:06:44;96088.28;;;11.28;100.00
4617;BME280;2321;42.704;23.384;2022-10-31T06:09:11;96087.25;;;11.29;100.00
4617;BME280;2321;42.704;23.384;2022-10-31T06:11:38;96088.84;;;11.39;100.00
4617;BME280;2321;42.704;23.384;2022-10-31T06:14:06;96087.63;;;11.41;100.00
4617;BME280;2321;42.704;23.384;2022-10-31T06:16:34;96097.34;;;11.58;100.00
4617;BME280;2321;42.704;23.384;2022-10-31T06:19:01;96099.91;;;11.66;100.00
4617;BME280;2321;42.704;23.384;2022-10-31T06:21:28;96104.81;;;11.77;100.00
4617;BME280;2321;42.704;23.384;2022-10-31T06:23:55;96116.41;;;11.85;100.00
4617;BME280;2321;42.704;23.384;2022-10-31T06:26:22;96116.31;;;11.93;100.00
4617;BME280;2321;42.704;23.384;2022-10-31T06:28:48;96115.06;;;12.04;100.00
4617;BME280;2321;42.704;23.384;2022-10-31T06:31:15;96114.13;;;12.12;100.00
4617;BME280;2321;42.704;23.384;2022-10-31T06:33:44;96120.88;;;12.23;100.00
4617;BME280;2321;42.704;23.384;2022-10-31T06:36:11;96120.78;;;12.31;100.00
4617;BME280;2321;42.704;23.384;2022-10-31T06:38:37;96123.81;;;12.44;100.00
4617;BME280;2321;42.704;23.384;2022-10-31T06:41:05;96128.66;;;12.55;100.00
4617;BME280;2321;42.704;23.384;2022-10-31T06:43:32;96125.25;;;12.61;100.00
4617;BME280;2321;42.704;23.384;2022-10-31T06:46:02;96124.88;;;12.64;100.00
4617;BME280;2321;42.704;23.384;2022-10-31T06:48:29;96126.69;;;12.79;100.00
4617;BME280;2321;42.704;23.384;2022-10-31T06:50:58;96126.59;;;12.88;100.00
4617;BME280;2321;42.704;23.384;2022-10-31T06:53:26;96130.44;;;13.00;100.00
4617;BME280;2321;42.704;23.384;2022-10-31T06:55:55;96129.53;;;13.15;100.00
4617;BME280;2321;42.704;23.384;2022-10-31T06:58:22;96128.03;;;13.27;100.00
4617;BME280;2321;42.704;23.384;2022-10-31T07:00:49;96132.00;;;13.38;100.00
4617;BME280;2321;42.704;23.384;2022-10-31T07:03:16;96132.72;;;13.47;100.00
4617;BME280;2321;42.704;23.384;2022-10-31T07:05:43;96136.91;;;13.57;100.00
4617;BME280;2321;42.704;23.384;2022-10-31T07:08:12;96128.59;;;13.67;100.00
4617;BME280;2321;42.704;23.384;2022-10-31T07:10:41;96128.44;;;13.75;100.00
4617;BME280;2321;42.704;23.384;2022-10-31T07:13:11;96120.03;;;13.78;100.00
4617;BME280;2321;42.704;23.384;2022-10-31T07:15:39;96123.44;;;13.94;100.00
4617;BME280;2321;42.704;23.384;2022-10-31T07:18:08;96125.75;;;14.04;100.00
4617;BME280;2321;42.704;23.384;2022-10-31T07:20:35;96113.88;;;14.13;100.00
4617;BME280;2321;42.704;23.384;2022-10-31T07:23:03;96112.25;;;14.26;100.00
4617;BME280;2321;42.704;23.384;2022-10-31T07:25:31;96112.53;;;14.31;100.00
4617;BME280;2321;42.704;23.384;2022-10-31T07:27:58;96115.66;;;14.42;100.00
4617;BME280;2321;42.704;23.384;2022-10-31T07:30:25;96113.63;;;14.51;99.99
4617;BME280;2321;42.704;23.384;2022-10-31T07:32:52;96110.53;;;14.54;99.06
4617;BME280;2321;42.704;23.384;2022-10-31T07:35:20;96109.34;;;14.56;98.80
4617;BME280;2321;42.704;23.384;2022-10-31T07:37:48;96105.66;;;14.64;98.78
4617;BME280;2321;42.704;23.384;2022-10-31T07:40:16;96108.94;;;14.66;98.40
4617;BME280;2321;42.704;23.384;2022-10-31T07:42:47;96110.41;;;14.76;98.59
4617;BME280;2321;42.704;23.384;2022-10-31T07:45:16;96102.41;;;14.82;97.85
4617;BME280;2321;42.704;23.384;2022-10-31T07:47:44;96105.16;;;14.96;96.71
4617;BME280;2321;42.704;23.384;2022-10-31T07:50:13;96106.41;;;15.07;95.50
4617;BME280;2321;42.704;23.384;2022-10-31T07:52:41;96106.84;;;15.18;95.43
4617;BME280;2321;42.704;23.384;2022-10-31T07:55:08;96107.69;;;15.25;95.17
4617;BME280;2321;42.704;23.384;2022-10-31T07:57:35;96108.94;;;15.36;95.29
4617;BME280;2321;42.704;23.384;2022-10-31T08:00:05;96113.88;;;15.46;94.25
4617;BME280;2321;42.704;23.384;2022-10-31T08:02:32;96104.59;;;15.55;93.40
4617;BME280;2321;42.704;23.384;2022-10-31T08:04:59;96110.81;;;15.63;93.51
4617;BME280;2321;42.704;23.384;2022-10-31T08:07:27;96107.72;;;15.73;93.19
4617;BME280;2321;42.704;23.384;2022-10-31T08:09:54;96110.38;;;15.79;92.52
4617;BME280;2321;42.704;23.384;2022-10-31T08:12:21;96103.38;;;15.85;93.23
4617;BME280;2321;42.704;23.384;2022-10-31T08:14:48;96109.75;;;15.91;92.85
4617;BME280;2321;42.704;23.384;2022-10-31T08:17:17;96106.66;;;15.94;92.89
4617;BME280;2321;42.704;23.384;2022-10-31T08:19:44;96103.56;;;15.97;92.92
4617;BME280;2321;42.704;23.384;2022-10-31T08:22:11;96106.19;;;16.04;93.45
4617;BME280;2321;42.704;23.384;2022-10-31T08:24:38;96101.88;;;16.17;92.76
4617;BME280;2321;42.704;23.384;2022-10-31T08:27:05;96106.41;;;16.23;90.80
4617;BME280;2321;42.704;23.384;2022-10-31T08:29:31;96104.94;;;16.27;91.48
4617;BME280;2321;42.704;23.384;2022-10-31T08:31:58;96101.19;;;16.42;90.85
4617;BME280;2321;42.704;23.384;2022-10-31T08:34:27;96098.03;;;16.59;90.61
4617;BME280;2321;42.704;23.384;2022-10-31T08:36:53;96099.44;;;16.68;87.91
4617;BME280;2321;42.704;23.384;2022-10-31T08:39:20;96105.34;;;16.84;84.77
4617;BME280;2321;42.704;23.384;2022-10-31T08:41:47;96099.66;;;16.99;85.49
4617;BME280;2321;42.704;23.384;2022-10-31T08:44:14;96101.69;;;17.10;81.77
4617;BME280;2321;42.704;23.384;2022-10-31T08:46:42;96102.28;;;17.19;81.29
4617;BME280;2321;42.704;23.384;2022-10-31T08:49:08;96091.28;;;17.21;80.90
4617;BME280;2321;42.704;23.384;2022-10-31T08:51:37;96097.22;;;17.30;80.00
4617;BME280;2321;42.704;23.384;2022-10-31T08:54:04;96103.78;;;17.41;77.13
4617;BME280;2321;42.704;23.384;2022-10-31T08:56:31;96101.66;;;17.50;78.24
4617;BME280;2321;42.704;23.384;2022-10-31T08:58:58;96097.22;;;17.62;75.59
4617;BME280;2321;42.704;23.384;2022-10-31T09:01:25;96100.66;;;17.70;74.97
4617;BME280;2321;42.704;23.384;2022-10-31T09:03:51;96097.91;;;17.77;74.75
4617;BME280;2321;42.704;23.384;2022-10-31T09:06:18;96095.75;;;17.85;74.85
4617;BME280;2321;42.704;23.384;2022-10-31T09:08:46;96092.72;;;18.01;72.40
4617;BME280;2321;42.704;23.384;2022-10-31T09:11:13;96087.84;;;18.10;71.68
4617;BME280;2321;42.704;23.384;2022-10-31T09:13:40;96090.59;;;18.28;70.67
4617;BME280;2321;42.704;23.384;2022-10-31T09:16:07;96089.47;;;18.36;69.36
4617;BME280;2321;42.704;23.384;2022-10-31T09:18:34;96085.88;;;18.43;70.21
4617;BME280;2321;42.704;23.384;2022-10-31T09:21:01;96084.75;;;18.50;69.21
4617;BME280;2321;42.704;23.384;2022-10-31T09:23:28;96080.69;;;18.60;68.47
4617;BME280;2321;42.704;23.384;2022-10-31T09:26:01;96080.28;;;18.75;68.35
4617;BME280;2321;42.704;23.384;2022-10-31T09:28:28;96084.06;;;18.86;66.43
4617;BME280;2321;42.704;23.384;2022-10-31T09:30:54;96086.84;;;18.98;66.06
4617;BME280;2321;42.704;23.384;2022-10-31T09:33:21;96077.13;;;19.09;65.11
4617;BME280;2321;42.704;23.384;2022-10-31T09:35:49;96082.50;;;19.28;63.30
4617;BME280;2321;42.704;23.384;2022-10-31T09:38:17;96067.34;;;19.27;63.49
4617;BME280;2321;42.704;23.384;2022-10-31T09:40:47;96080.75;;;19.34;63.93
4617;BME280;2321;42.704;23.384;2022-10-31T09:43:23;96079.84;;;19.52;61.80
4617;BME280;2321;42.704;23.384;2022-10-31T09:45:57;96075.72;;;19.62;61.11
4617;BME280;2321;42.704;23.384;2022-10-31T09:48:48;96069.41;;;19.68;61.36
4617;BME280;2321;42.704;23.384;2022-10-31T09:51:19;96075.97;;;19.84;61.78
4617;BME280;2321;42.704;23.384;2022-10-31T09:53:51;96065.03;;;20.03;60.13
4617;BME280;2321;42.704;23.384;2022-10-31T09:56:21;96067.97;;;20.13;59.17
4617;BME280;2321;42.704;23.384;2022-10-31T09:58:53;96061.66;;;20.20;59.77
4617;BME280;2321;42.704;23.384;2022-10-31T10:01:31;96073.47;;;20.31;58.41
4617;BME280;2321;42.704;23.384;2022-10-31T10:04:03;96066.56;;;20.35;58.48
4617;BME280;2321;42.704;23.384;2022-10-31T10:06:34;96054.31;;;20.44;57.72
4617;BME280;2321;42.704;23.384;2022-10-31T10:09:03;96053.78;;;20.60;57.67
4617;BME280;2321;42.704;23.384;2022-10-31T10:11:40;96048.56;;;20.70;56.09
4617;BME280;2321;42.704;23.384;2022-10-31T10:14:31;96044.81;;;20.88;56.17
4617;BME280;2321;42.704;23.384;2022-10-31T10:17:20;96041.16;;;20.95;55.36
4617;BME280;2321;42.704;23.384;2022-10-31T10:20:17;96034.53;;;21.03;55.02
4617;BME280;2321;42.704;23.384;2022-10-31T10:22:52;96031.13;;;21.07;54.91
4617;BME280;2321;42.704;23.384;2022-10-31T10:25:22;96018.75;;;21.11;53.81
4617;BME280;2321;42.704;23.384;2022-10-31T10:27:58;96026.22;;;21.21;54.67
4617;BME280;2321;42.704;23.384;2022-10-31T10:30:32;96021.56;;;21.34;54.38
4617;BME280;2321;42.704;23.384;2022-10-31T10:33:04;96026.06;;;21.46;53.60
4617;BME280;2321;42.704;23.384;2022-10-31T10:35:38;96016.34;;;21.50;52.50
4617;BME280;2321;42.704;23.384;2022-10-31T10:38:13;96005.28;;;21.51;52.39
4617;BME280;2321;42.704;23.384;2022-10-31T10:40:41;96013.38;;;21.69;52.06
4617;BME280;2321;42.704;23.384;2022-10-31T10:43:19;96016.47;;;21.77;52.74
4617;BME280;2321;42.704;23.384;2022-10-31T10:48:58;96000.06;;;22.02;49.34
4617;BME280;2321;42.704;23.384;2022-10-31T10:51:32;96001.69;;;22.03;50.11
4617;BME280;2321;42.704;23.384;2022-10-31T10:54:33;96002.88;;;22.12;50.55
4617;BME280;2321;42.704;23.384;2022-10-31T10:57:10;96001.13;;;22.23;50.05
4617;BME280;2321;42.704;23.384;2022-10-31T10:59:39;96001.78;;;22.36;48.62
4617;BME280;2321;42.704;23.384;2022-10-31T11:02:19;96001.59;;;22.42;48.80
4617;BME280;2321;42.704;23.384;2022-10-31T11:04:49;95991.34;;;22.45;48.18
4617;BME280;2321;42.704;23.384;2022-10-31T11:07:17;95989.59;;;22.61;48.05
4617;BME280;2321;42.704;23.384;2022-10-31T11:09:44;95992.66;;;22.70;47.99
4617;BME280;2321;42.704;23.384;2022-10-31T11:12:18;95983.28;;;22.78;47.53
4617;BME280;2321;42.704;23.384;2022-10-31T11:14:49;95980.38;;;22.84;47.03
4617;BME280;2321;42.704;23.384;2022-10-31T11:17:22;95978.75;;;22.89;46.41
4617;BME280;2321;42.704;23.384;2022-10-31T11:20:03;95979.03;;;22.87;46.17
4617;BME280;2321;42.704;23.384;2022-10-31T11:22:31;95971.75;;;22.93;46.05
4617;BME280;2321;42.704;23.384;2022-10-31T11:24:58;95964.78;;;23.02;45.45
4617;BME280;2321;42.704;23.384;2022-10-31T11:27:26;95961.56;;;23.11;46.47
4617;BME280;2321;42.704;23.384;2022-10-31T11:30:04;95963.03;;;23.24;45.39
4617;BME280;2321;42.704;23.384;2022-10-31T11:32:32;95965.00;;;23.34;44.40
4617;BME280;2321;42.704;23.384;2022-10-31T11:35:02;95963.06;;;23.29;44.53
4617;BME280;2321;42.704;23.384;2022-10-31T11:37:40;95946.53;;;23.31;44.48
4617;BME280;2321;42.704;23.384;2022-10-31T11:40:17;95944.59;;;23.31;44.68
4617;BME280;2321;42.704;23.384;2022-10-31T11:42:45;95943.53;;;23.32;44.54
4617;BME280;2321;42.704;23.384;2022-10-31T11:45:15;95953.97;;;23.46;44.05
4617;BME280;2321;42.704;23.384;2022-10-31T11:47:47;95941.44;;;23.45;44.54
4617;BME280;2321;42.704;23.384;2022-10-31T11:50:19;95945.28;;;23.49;43.50
4617;BME280;2321;42.704;23.384;2022-10-31T11:52:48;95934.41;;;23.49;43.48
4617;BME280;2321;42.704;23.384;2022-10-31T11:55:25;95939.84;;;23.49;43.52
4617;BME280;2321;42.704;23.384;2022-10-31T11:57:56;95934.47;;;23.54;43.52
4617;BME280;2321;42.704;23.384;2022-10-31T12:00:26;95922.78;;;23.54;43.37
4617;BME280;2321;42.704;23.384;2022-10-31T12:03:11;95926.34;;;23.65;43.54
4617;BME280;2321;42.704;23.384;2022-10-31T12:05:41;95928.84;;;23.71;43.70
4617;BME280;2321;42.704;23.384;2022-10-31T12:08:11;95928.38;;;23.85;42.94
4617;BME280;2321;42.704;23.384;2022-10-31T12:10:51;95926.78;;;23.94;42.35
4617;BME280;2321;42.704;23.384;2022-10-31T12:13:32;95924.03;;;23.89;42.42
4617;BME280;2321;42.704;23.384;2022-10-31T12:16:15;95925.69;;;23.96;42.43
4617;BME280;2321;42.704;23.384;2022-10-31T12:18:56;95921.91;;;24.02;42.03
4617;BME280;2321;42.704;23.384;2022-10-31T12:24:35;95921.94;;;24.07;42.55
4617;BME280;2321;42.704;23.384;2022-10-31T12:27:14;95927.94;;;24.14;42.11
4617;BME280;2321;42.704;23.384;2022-10-31T12:30:01;95918.94;;;24.14;42.22
4617;BME280;2321;42.704;23.384;2022-10-31T12:32:38;95919.53;;;24.26;41.90
4617;BME280;2321;42.704;23.384;2022-10-31T12:35:27;95917.94;;;24.31;42.11
4617;BME280;2321;42.704;23.384;2022-10-31T12:38:14;95917.94;;;24.31;41.40
4617;BME280;2321;42.704;23.384;2022-10-31T12:40:55;95917.13;;;24.35;42.43
4617;BME280;2321;42.704;23.384;2022-10-31T12:43:36;95919.88;;;24.46;41.79
4617;BME280;2321;42.704;23.384;2022-10-31T12:46:15;95921.00;;;24.50;41.18
4617;BME280;2321;42.704;23.384;2022-10-31T12:49:09;95922.06;;;24.54;42.07
4617;BME280;2321;42.704;23.384;2022-10-31T12:51:47;95919.88;;;24.51;42.64
4617;BME280;2321;42.704;23.384;2022-10-31T12:54:32;95919.88;;;24.56;40.86
4617;BME280;2321;42.704;23.384;2022-10-31T12:57:09;95916.38;;;24.56;41.01
4617;BME280;2321;42.704;23.384;2022-10-31T12:59:42;95916.63;;;24.54;41.50
4617;BME280;2321;42.704;23.384;2022-10-31T13:02:15;95921.28;;;24.59;41.50
4617;BME280;2321;42.704;23.384;2022-10-31T13:04:48;95916.91;;;24.63;41.70
4617;BME280;2321;42.704;23.384;2022-10-31T13:07:22;95920.19;;;24.65;41.26
4617;BME280;2321;42.704;23.384;2022-10-31T13:09:56;95922.66;;;24.77;40.14
4617;BME280;2321;42.704;23.384;2022-10-31T13:12:24;95924.03;;;24.75;41.15
4617;BME280;2321;42.704;23.384;2022-10-31T13:14:55;95914.50;;;24.77;40.96
4617;BME280;2321;42.704;23.384;2022-10-31T13:17:27;95913.13;;;24.75;40.40
4617;BME280;2321;42.704;23.384;2022-10-31T13:20:02;95917.47;;;24.70;40.80
4617;BME280;2321;42.704;23.384;2022-10-31T13:22:33;95917.19;;;24.67;41.06
4617;BME280;2321;42.704;23.384;2022-10-31T13:25:09;95916.41;;;24.72;40.61
4617;BME280;2321;42.704;23.384;2022-10-31T13:27:44;95920.72;;;24.67;40.31
4617;BME280;2321;42.704;23.384;2022-10-31T13:30:15;95916.09;;;24.63;40.61